KCLS/CLS METAR and TAF weather

Enter ICAO airport designator
Station Type Date Time Source
KCLS METAR 2022/12/05 15:35 UTC NOAA

KCLS 051535Z AUTO 02003KT 3/4SM -DZ OVC005 01/01 A3002 RMK AO2


Station Type Date Time Source
KCLS Decoded METAR 2022/12/05 15:35 UTC NOAA

Station name not available
Dec 05, 2022 - 10:35 AM EST / 2022.12.05 1535 UTC
Wind: from the NNE (020 degrees) at 3 MPH (3 KT):0
Visibility: 3/4 mile(s):0
Sky conditions: overcast
Weather: light drizzle
Temperature: 33 F (1 C)
Dew Point: 33 F (1 C)
Relative Humidity: 100%
Pressure (altimeter): 30.02 in. Hg (1016 hPa)
ob: KCLS 051535Z AUTO 02003KT 3/4SM -DZ OVC005 01/01 A3002 RMK AO2
cycle: 15

Station Type Date Time Source
KCLS TAF UTC NOAA

Error!

Example: see airport list